sensor_id;sensor_type;location;lat;lon;timestamp;P1;durP1;ratioP1;P2;durP2;ratioP2
22223;SDS011;11281;52.194;21.006;2023-05-16T00:03:06;3.63;;;3.25;;
22223;SDS011;11281;52.194;21.006;2023-05-16T00:07:10;4.53;;;3.42;;
22223;SDS011;11281;52.194;21.006;2023-05-16T00:11:12;6.22;;;3.97;;
22223;SDS011;11281;52.194;21.006;2023-05-16T00:15:13;5.72;;;4.15;;
22223;SDS011;11281;52.194;21.006;2023-05-16T00:19:14;4.93;;;3.92;;
22223;SDS011;11281;52.194;21.006;2023-05-16T00:23:16;6.35;;;3.90;;
22223;SDS011;11281;52.194;21.006;2023-05-16T00:27:18;4.80;;;3.75;;
22223;SDS011;11281;52.194;21.006;2023-05-16T00:31:19;5.28;;;3.90;;
22223;SDS011;11281;52.194;21.006;2023-05-16T00:35:20;4.45;;;4.00;;
22223;SDS011;11281;52.194;21.006;2023-05-16T00:39:23;4.20;;;3.80;;
22223;SDS011;11281;52.194;21.006;2023-05-16T00:43:25;6.10;;;4.20;;
22223;SDS011;11281;52.194;21.006;2023-05-16T00:47:26;7.20;;;4.00;;
22223;SDS011;11281;52.194;21.006;2023-05-16T00:51:28;7.90;;;4.35;;
22223;SDS011;11281;52.194;21.006;2023-05-16T00:55:30;5.18;;;4.05;;
22223;SDS011;11281;52.194;21.006;2023-05-16T00:59:32;7.90;;;4.35;;
22223;SDS011;11281;52.194;21.006;2023-05-16T01:03:34;6.22;;;4.68;;
22223;SDS011;11281;52.194;21.006;2023-05-16T01:07:36;9.65;;;5.30;;
22223;SDS011;11281;52.194;21.006;2023-05-16T01:16:09;6.47;;;5.35;;
22223;SDS011;11281;52.194;21.006;2023-05-16T01:28:32;9.15;;;5.22;;
22223;SDS011;11281;52.194;21.006;2023-05-16T01:32:34;7.80;;;5.40;;
22223;SDS011;11281;52.194;21.006;2023-05-16T01:36:47;8.55;;;5.75;;
22223;SDS011;11281;52.194;21.006;2023-05-16T01:41:01;6.90;;;5.38;;
22223;SDS011;11281;52.194;21.006;2023-05-16T01:45:13;7.57;;;5.60;;
22223;SDS011;11281;52.194;21.006;2023-05-16T01:49:19;6.43;;;5.35;;
22223;SDS011;11281;52.194;21.006;2023-05-16T01:53:28;9.50;;;5.72;;
22223;SDS011;11281;52.194;21.006;2023-05-16T01:57:35;8.10;;;6.20;;
22223;SDS011;11281;52.194;21.006;2023-05-16T02:01:38;10.38;;;6.15;;
22223;SDS011;11281;52.194;21.006;2023-05-16T02:05:39;8.32;;;6.18;;
22223;SDS011;11281;52.194;21.006;2023-05-16T02:09:41;7.60;;;5.95;;
22223;SDS011;11281;52.194;21.006;2023-05-16T02:13:43;9.80;;;6.70;;
22223;SDS011;11281;52.194;21.006;2023-05-16T02:17:44;9.35;;;6.40;;
22223;SDS011;11281;52.194;21.006;2023-05-16T02:21:47;8.68;;;6.60;;
22223;SDS011;11281;52.194;21.006;2023-05-16T02:25:49;7.07;;;5.72;;
22223;SDS011;11281;52.194;21.006;2023-05-16T02:29:50;8.60;;;6.10;;
22223;SDS011;11281;52.194;21.006;2023-05-16T02:33:51;8.25;;;5.97;;
22223;SDS011;11281;52.194;21.006;2023-05-16T02:37:53;9.70;;;5.78;;
22223;SDS011;11281;52.194;21.006;2023-05-16T02:41:55;7.78;;;5.93;;
22223;SDS011;11281;52.194;21.006;2023-05-16T02:45:56;6.93;;;5.38;;
22223;SDS011;11281;52.194;21.006;2023-05-16T02:49:58;6.30;;;5.32;;
22223;SDS011;11281;52.194;21.006;2023-05-16T02:53:59;10.00;;;6.43;;
22223;SDS011;11281;52.194;21.006;2023-05-16T02:58:01;7.90;;;6.05;;
22223;SDS011;11281;52.194;21.006;2023-05-16T03:02:02;6.60;;;5.60;;
22223;SDS011;11281;52.194;21.006;2023-05-16T03:06:04;8.43;;;6.47;;
22223;SDS011;11281;52.194;21.006;2023-05-16T03:10:06;8.98;;;6.35;;
22223;SDS011;11281;52.194;21.006;2023-05-16T03:14:08;8.40;;;6.07;;
22223;SDS011;11281;52.194;21.006;2023-05-16T03:18:09;8.18;;;5.93;;
22223;SDS011;11281;52.194;21.006;2023-05-16T03:22:11;9.52;;;6.70;;
22223;SDS011;11281;52.194;21.006;2023-05-16T03:26:13;9.23;;;6.68;;
22223;SDS011;11281;52.194;21.006;2023-05-16T03:30:14;7.72;;;6.40;;
22223;SDS011;11281;52.194;21.006;2023-05-16T03:34:16;8.65;;;6.53;;
22223;SDS011;11281;52.194;21.006;2023-05-16T03:38:17;10.80;;;6.78;;
22223;SDS011;11281;52.194;21.006;2023-05-16T03:42:19;9.02;;;6.15;;
22223;SDS011;11281;52.194;21.006;2023-05-16T03:46:21;9.27;;;6.50;;
22223;SDS011;11281;52.194;21.006;2023-05-16T03:50:22;10.65;;;6.93;;
22223;SDS011;11281;52.194;21.006;2023-05-16T03:54:23;8.60;;;6.50;;
22223;SDS011;11281;52.194;21.006;2023-05-16T03:58:25;8.55;;;5.82;;
22223;SDS011;11281;52.194;21.006;2023-05-16T04:02:27;9.30;;;6.28;;
22223;SDS011;11281;52.194;21.006;2023-05-16T04:06:28;7.93;;;5.68;;
22223;SDS011;11281;52.194;21.006;2023-05-16T04:10:29;11.20;;;6.40;;
22223;SDS011;11281;52.194;21.006;2023-05-16T04:14:30;7.28;;;5.88;;
22223;SDS011;11281;52.194;21.006;2023-05-16T04:18:32;10.30;;;6.03;;
22223;SDS011;11281;52.194;21.006;2023-05-16T04:22:33;8.98;;;6.25;;
22223;SDS011;11281;52.194;21.006;2023-05-16T04:26:35;9.13;;;6.15;;
22223;SDS011;11281;52.194;21.006;2023-05-16T04:30:37;7.88;;;5.43;;
22223;SDS011;11281;52.194;21.006;2023-05-16T04:34:38;6.63;;;5.75;;
22223;SDS011;11281;52.194;21.006;2023-05-16T04:38:40;8.55;;;5.97;;
22223;SDS011;11281;52.194;21.006;2023-05-16T04:42:42;7.70;;;5.47;;
22223;SDS011;11281;52.194;21.006;2023-05-16T04:46:43;6.25;;;5.35;;
22223;SDS011;11281;52.194;21.006;2023-05-16T04:50:44;6.82;;;5.15;;
22223;SDS011;11281;52.194;21.006;2023-05-16T04:54:49;8.40;;;5.28;;
22223;SDS011;11281;52.194;21.006;2023-05-16T04:58:50;9.30;;;5.88;;
22223;SDS011;11281;52.194;21.006;2023-05-16T05:02:52;8.95;;;6.50;;
22223;SDS011;11281;52.194;21.006;2023-05-16T05:06:53;8.02;;;5.43;;
22223;SDS011;11281;52.194;21.006;2023-05-16T05:10:55;9.38;;;6.03;;
22223;SDS011;11281;52.194;21.006;2023-05-16T05:14:56;7.40;;;5.57;;
22223;SDS011;11281;52.194;21.006;2023-05-16T05:18:57;6.72;;;5.85;;
22223;SDS011;11281;52.194;21.006;2023-05-16T05:22:59;8.10;;;5.70;;
22223;SDS011;11281;52.194;21.006;2023-05-16T05:27:00;8.63;;;5.90;;
22223;SDS011;11281;52.194;21.006;2023-05-16T05:31:01;7.68;;;6.78;;
22223;SDS011;11281;52.194;21.006;2023-05-16T05:35:05;7.95;;;6.18;;
22223;SDS011;11281;52.194;21.006;2023-05-16T05:39:07;9.93;;;6.95;;
22223;SDS011;11281;52.194;21.006;2023-05-16T05:43:08;8.80;;;6.70;;
22223;SDS011;11281;52.194;21.006;2023-05-16T05:47:09;11.57;;;7.80;;
22223;SDS011;11281;52.194;21.006;2023-05-16T05:51:11;11.23;;;6.95;;
22223;SDS011;11281;52.194;21.006;2023-05-16T05:55:13;10.23;;;6.82;;
22223;SDS011;11281;52.194;21.006;2023-05-16T05:59:15;9.48;;;7.18;;
22223;SDS011;11281;52.194;21.006;2023-05-16T06:03:17;9.52;;;6.72;;
22223;SDS011;11281;52.194;21.006;2023-05-16T06:07:18;9.05;;;6.05;;
22223;SDS011;11281;52.194;21.006;2023-05-16T06:11:19;8.38;;;6.80;;
22223;SDS011;11281;52.194;21.006;2023-05-16T06:15:21;9.68;;;7.32;;
22223;SDS011;11281;52.194;21.006;2023-05-16T06:19:22;11.20;;;6.25;;
22223;SDS011;11281;52.194;21.006;2023-05-16T06:23:24;8.30;;;6.22;;
22223;SDS011;11281;52.194;21.006;2023-05-16T06:27:25;7.10;;;5.30;;
22223;SDS011;11281;52.194;21.006;2023-05-16T06:31:26;6.30;;;5.32;;
22223;SDS011;11281;52.194;21.006;2023-05-16T06:35:27;6.30;;;4.95;;
22223;SDS011;11281;52.194;21.006;2023-05-16T06:39:29;6.47;;;5.47;;
22223;SDS011;11281;52.194;21.006;2023-05-16T06:43:30;5.35;;;4.55;;
22223;SDS011;11281;52.194;21.006;2023-05-16T06:47:31;8.80;;;5.78;;
22223;SDS011;11281;52.194;21.006;2023-05-16T06:51:33;5.97;;;5.30;;
22223;SDS011;11281;52.194;21.006;2023-05-16T06:55:35;8.55;;;5.40;;
22223;SDS011;11281;52.194;21.006;2023-05-16T06:59:37;5.60;;;4.97;;
22223;SDS011;11281;52.194;21.006;2023-05-16T07:03:39;5.95;;;4.65;;
22223;SDS011;11281;52.194;21.006;2023-05-16T07:07:41;5.75;;;5.15;;
22223;SDS011;11281;52.194;21.006;2023-05-16T07:11:43;5.13;;;4.63;;
22223;SDS011;11281;52.194;21.006;2023-05-16T07:15:44;7.57;;;5.28;;
22223;SDS011;11281;52.194;21.006;2023-05-16T07:19:45;6.15;;;5.50;;
22223;SDS011;11281;52.194;21.006;2023-05-16T07:23:47;6.18;;;5.20;;
22223;SDS011;11281;52.194;21.006;2023-05-16T07:27:48;4.93;;;4.43;;
22223;SDS011;11281;52.194;21.006;2023-05-16T07:31:49;4.60;;;3.75;;
22223;SDS011;11281;52.194;21.006;2023-05-16T07:35:50;3.25;;;2.28;;
22223;SDS011;11281;52.194;21.006;2023-05-16T07:39:53;4.32;;;2.58;;
22223;SDS011;11281;52.194;21.006;2023-05-16T07:43:54;2.85;;;2.65;;
22223;SDS011;11281;52.194;21.006;2023-05-16T07:47:56;3.80;;;2.60;;
22223;SDS011;11281;52.194;21.006;2023-05-16T07:51:58;3.17;;;2.80;;
22223;SDS011;11281;52.194;21.006;2023-05-16T07:56:00;2.78;;;2.50;;
22223;SDS011;11281;52.194;21.006;2023-05-16T08:00:01;3.15;;;2.85;;
22223;SDS011;11281;52.194;21.006;2023-05-16T08:04:04;3.40;;;3.05;;
22223;SDS011;11281;52.194;21.006;2023-05-16T08:08:06;3.55;;;2.75;;
22223;SDS011;11281;52.194;21.006;2023-05-16T08:12:08;3.35;;;3.03;;
22223;SDS011;11281;52.194;21.006;2023-05-16T08:16:10;3.60;;;3.30;;
22223;SDS011;11281;52.194;21.006;2023-05-16T08:20:12;4.30;;;2.60;;
22223;SDS011;11281;52.194;21.006;2023-05-16T08:24:13;2.60;;;2.40;;
22223;SDS011;11281;52.194;21.006;2023-05-16T08:28:14;2.42;;;2.22;;
22223;SDS011;11281;52.194;21.006;2023-05-16T08:32:16;4.38;;;2.30;;
22223;SDS011;11281;52.194;21.006;2023-05-16T08:36:18;1.90;;;1.80;;
22223;SDS011;11281;52.194;21.006;2023-05-16T08:40:19;2.38;;;2.17;;
22223;SDS011;11281;52.194;21.006;2023-05-16T08:44:27;2.45;;;2.03;;
22223;SDS011;11281;52.194;21.006;2023-05-16T08:48:28;2.33;;;2.13;;
22223;SDS011;11281;52.194;21.006;2023-05-16T08:52:32;3.00;;;2.58;;
22223;SDS011;11281;52.194;21.006;2023-05-16T08:56:36;2.28;;;1.90;;
22223;SDS011;11281;52.194;21.006;2023-05-16T09:00:38;2.33;;;2.13;;
22223;SDS011;11281;52.194;21.006;2023-05-16T09:04:40;2.95;;;2.42;;
22223;SDS011;11281;52.194;21.006;2023-05-16T09:08:43;4.80;;;2.40;;
22223;SDS011;11281;52.194;21.006;2023-05-16T09:12:44;2.83;;;2.28;;
22223;SDS011;11281;52.194;21.006;2023-05-16T09:16:50;1.88;;;1.77;;
22223;SDS011;11281;52.194;21.006;2023-05-16T09:21:06;5.18;;;2.78;;
22223;SDS011;11281;52.194;21.006;2023-05-16T09:25:08;2.65;;;2.45;;
22223;SDS011;11281;52.194;21.006;2023-05-16T09:29:15;2.53;;;2.30;;
22223;SDS011;11281;52.194;21.006;2023-05-16T09:33:22;3.78;;;2.40;;
22223;SDS011;11281;52.194;21.006;2023-05-16T09:37:23;3.53;;;2.40;;
22223;SDS011;11281;52.194;21.006;2023-05-16T09:41:25;2.88;;;2.67;;
22223;SDS011;11281;52.194;21.006;2023-05-16T09:45:27;2.42;;;2.22;;
22223;SDS011;11281;52.194;21.006;2023-05-16T09:49:28;1.90;;;1.80;;
22223;SDS011;11281;52.194;21.006;2023-05-16T09:53:30;2.20;;;2.00;;
22223;SDS011;11281;52.194;21.006;2023-05-16T09:57:35;2.33;;;1.95;;
22223;SDS011;11281;52.194;21.006;2023-05-16T10:01:38;2.45;;;2.05;;
22223;SDS011;11281;52.194;21.006;2023-05-16T10:05:40;2.15;;;1.83;;
22223;SDS011;11281;52.194;21.006;2023-05-16T10:09:41;4.10;;;1.85;;
22223;SDS011;11281;52.194;21.006;2023-05-16T10:13:43;2.58;;;2.05;;
22223;SDS011;11281;52.194;21.006;2023-05-16T10:17:50;2.42;;;1.50;;
22223;SDS011;11281;52.194;21.006;2023-05-16T10:21:57;2.10;;;1.77;;
22223;SDS011;11281;52.194;21.006;2023-05-16T10:26:01;3.55;;;1.92;;
22223;SDS011;11281;52.194;21.006;2023-05-16T10:30:04;3.53;;;2.13;;
22223;SDS011;11281;52.194;21.006;2023-05-16T10:34:06;1.88;;;1.70;;
22223;SDS011;11281;52.194;21.006;2023-05-16T10:38:08;1.73;;;1.63;;
22223;SDS011;11281;52.194;21.006;2023-05-16T10:42:11;2.20;;;1.67;;
22223;SDS011;11281;52.194;21.006;2023-05-16T10:46:17;2.42;;;2.17;;
22223;SDS011;11281;52.194;21.006;2023-05-16T10:50:38;1.70;;;1.60;;
22223;SDS011;11281;52.194;21.006;2023-05-16T10:54:41;1.60;;;1.50;;
22223;SDS011;11281;52.194;21.006;2023-05-16T10:58:49;2.50;;;2.00;;
22223;SDS011;11281;52.194;21.006;2023-05-16T11:02:53;1.90;;;1.80;;
22223;SDS011;11281;52.194;21.006;2023-05-16T11:07:05;2.22;;;1.52;;
22223;SDS011;11281;52.194;21.006;2023-05-16T11:15:40;1.80;;;1.55;;
22223;SDS011;11281;52.194;21.006;2023-05-16T11:23:42;2.40;;;2.20;;
22223;SDS011;11281;52.194;21.006;2023-05-16T11:27:44;2.35;;;2.00;;
22223;SDS011;11281;52.194;21.006;2023-05-16T11:31:47;2.05;;;1.80;;
22223;SDS011;11281;52.194;21.006;2023-05-16T11:35:58;1.83;;;1.73;;
22223;SDS011;11281;52.194;21.006;2023-05-16T11:40:08;4.10;;;1.98;;
22223;SDS011;11281;52.194;21.006;2023-05-16T11:44:12;3.78;;;1.85;;
22223;SDS011;11281;52.194;21.006;2023-05-16T11:48:15;2.00;;;1.90;;
22223;SDS011;11281;52.194;21.006;2023-05-16T11:52:17;3.13;;;2.20;;
22223;SDS011;11281;52.194;21.006;2023-05-16T11:56:19;1.88;;;1.77;;
22223;SDS011;11281;52.194;21.006;2023-05-16T12:00:21;1.58;;;1.48;;
22223;SDS011;11281;52.194;21.006;2023-05-16T12:04:25;2.17;;;1.88;;
22223;SDS011;11281;52.194;21.006;2023-05-16T12:08:27;2.40;;;1.83;;
22223;SDS011;11281;52.194;21.006;2023-05-16T12:12:29;2.58;;;1.90;;
22223;SDS011;11281;52.194;21.006;2023-05-16T12:16:30;2.30;;;1.95;;
22223;SDS011;11281;52.194;21.006;2023-05-16T12:20:32;2.10;;;1.70;;
22223;SDS011;11281;52.194;21.006;2023-05-16T12:24:33;2.65;;;1.80;;
22223;SDS011;11281;52.194;21.006;2023-05-16T12:28:34;2.47;;;2.15;;
22223;SDS011;11281;52.194;21.006;2023-05-16T12:32:38;2.40;;;1.70;;
22223;SDS011;11281;52.194;21.006;2023-05-16T12:36:39;2.13;;;1.90;;
22223;SDS011;11281;52.194;21.006;2023-05-16T12:40:42;2.80;;;1.92;;
22223;SDS011;11281;52.194;21.006;2023-05-16T12:44:44;4.00;;;1.73;;
22223;SDS011;11281;52.194;21.006;2023-05-16T12:48:46;1.60;;;1.50;;
22223;SDS011;11281;52.194;21.006;2023-05-16T12:52:57;1.63;;;1.52;;
22223;SDS011;11281;52.194;21.006;2023-05-16T12:56:59;3.47;;;1.50;;
22223;SDS011;11281;52.194;21.006;2023-05-16T13:01:02;4.00;;;1.65;;
22223;SDS011;11281;52.194;21.006;2023-05-16T13:05:03;2.03;;;1.83;;
22223;SDS011;11281;52.194;21.006;2023-05-16T13:09:07;1.60;;;1.50;;
22223;SDS011;11281;52.194;21.006;2023-05-16T13:13:11;3.67;;;1.95;;
22223;SDS011;11281;52.194;21.006;2023-05-16T13:17:14;1.52;;;1.33;;
22223;SDS011;11281;52.194;21.006;2023-05-16T13:21:15;1.98;;;1.67;;
22223;SDS011;11281;52.194;21.006;2023-05-16T13:25:17;2.03;;;1.83;;
22223;SDS011;11281;52.194;21.006;2023-05-16T13:29:18;1.60;;;1.50;;
22223;SDS011;11281;52.194;21.006;2023-05-16T13:33:19;1.98;;;1.77;;
22223;SDS011;11281;52.194;21.006;2023-05-16T13:37:21;2.17;;;1.65;;
22223;SDS011;11281;52.194;21.006;2023-05-16T13:41:23;3.03;;;1.80;;
22223;SDS011;11281;52.194;21.006;2023-05-16T13:45:25;2.60;;;2.00;;
22223;SDS011;11281;52.194;21.006;2023-05-16T13:49:27;2.08;;;1.90;;
22223;SDS011;11281;52.194;21.006;2023-05-16T13:53:28;2.10;;;1.40;;
22223;SDS011;11281;52.194;21.006;2023-05-16T13:57:29;2.08;;;1.95;;
22223;SDS011;11281;52.194;21.006;2023-05-16T14:01:31;2.13;;;1.90;;
22223;SDS011;11281;52.194;21.006;2023-05-16T14:05:32;1.88;;;1.67;;
22223;SDS011;11281;52.194;21.006;2023-05-16T14:09:33;2.53;;;2.33;;
22223;SDS011;11281;52.194;21.006;2023-05-16T14:13:36;2.10;;;1.83;;
22223;SDS011;11281;52.194;21.006;2023-05-16T14:17:39;3.33;;;1.75;;
22223;SDS011;11281;52.194;21.006;2023-05-16T14:21:40;6.38;;;1.70;;
22223;SDS011;11281;52.194;21.006;2023-05-16T14:25:42;3.10;;;1.75;;
22223;SDS011;11281;52.194;21.006;2023-05-16T14:29:44;2.40;;;1.50;;
22223;SDS011;11281;52.194;21.006;2023-05-16T14:33:46;1.58;;;1.30;;
22223;SDS011;11281;52.194;21.006;2023-05-16T14:37:47;3.05;;;1.60;;
22223;SDS011;11281;52.194;21.006;2023-05-16T14:41:48;2.17;;;1.73;;
22223;SDS011;11281;52.194;21.006;2023-05-16T14:45:50;2.45;;;1.40;;
22223;SDS011;11281;52.194;21.006;2023-05-16T14:49:51;2.05;;;1.90;;
22223;SDS011;11281;52.194;21.006;2023-05-16T14:53:54;2.13;;;1.58;;
22223;SDS011;11281;52.194;21.006;2023-05-16T14:57:55;2.05;;;1.75;;
22223;SDS011;11281;52.194;21.006;2023-05-16T15:01:57;2.25;;;1.80;;
22223;SDS011;11281;52.194;21.006;2023-05-16T15:05:59;1.50;;;1.40;;
22223;SDS011;11281;52.194;21.006;2023-05-16T15:10:01;2.88;;;1.98;;
22223;SDS011;11281;52.194;21.006;2023-05-16T15:14:02;1.95;;;1.55;;
22223;SDS011;11281;52.194;21.006;2023-05-16T15:18:03;1.77;;;1.60;;
22223;SDS011;11281;52.194;21.006;2023-05-16T15:22:05;1.90;;;1.70;;
22223;SDS011;11281;52.194;21.006;2023-05-16T15:26:07;1.25;;;1.15;;
22223;SDS011;11281;52.194;21.006;2023-05-16T15:30:08;1.48;;;1.25;;
22223;SDS011;11281;52.194;21.006;2023-05-16T15:34:10;1.40;;;1.30;;
22223;SDS011;11281;52.194;21.006;2023-05-16T15:38:12;1.75;;;1.40;;
22223;SDS011;11281;52.194;21.006;2023-05-16T15:42:14;1.58;;;1.38;;
22223;SDS011;11281;52.194;21.006;2023-05-16T15:46:15;1.95;;;1.40;;
22223;SDS011;11281;52.194;21.006;2023-05-16T15:50:16;1.50;;;1.40;;
22223;SDS011;11281;52.194;21.006;2023-05-16T15:54:18;2.40;;;1.58;;
22223;SDS011;11281;52.194;21.006;2023-05-16T15:58:20;3.55;;;1.60;;
22223;SDS011;11281;52.194;21.006;2023-05-16T16:02:22;3.00;;;2.00;;
22223;SDS011;11281;52.194;21.006;2023-05-16T16:06:24;2.35;;;2.15;;
22223;SDS011;11281;52.194;21.006;2023-05-16T16:10:26;4.20;;;2.10;;
22223;SDS011;11281;52.194;21.006;2023-05-16T16:14:27;3.97;;;1.75;;
22223;SDS011;11281;52.194;21.006;2023-05-16T16:18:28;1.90;;;1.42;;
22223;SDS011;11281;52.194;21.006;2023-05-16T16:22:30;2.03;;;1.60;;
22223;SDS011;11281;52.194;21.006;2023-05-16T16:26:31;2.42;;;1.70;;
22223;SDS011;11281;52.194;21.006;2023-05-16T16:30:32;1.42;;;1.33;;
22223;SDS011;11281;52.194;21.006;2023-05-16T16:34:33;3.05;;;1.85;;
22223;SDS011;11281;52.194;21.006;2023-05-16T16:38:35;2.22;;;1.52;;
22223;SDS011;11281;52.194;21.006;2023-05-16T16:42:36;10.95;;;3.65;;
22223;SDS011;11281;52.194;21.006;2023-05-16T16:46:39;1.98;;;1.63;;
22223;SDS011;11281;52.194;21.006;2023-05-16T16:50:41;1.67;;;1.58;;
22223;SDS011;11281;52.194;21.006;2023-05-16T16:54:43;2.47;;;1.80;;
22223;SDS011;11281;52.194;21.006;2023-05-16T16:58:44;1.77;;;1.63;;
22223;SDS011;11281;52.194;21.006;2023-05-16T17:02:46;1.50;;;1.40;;
22223;SDS011;11281;52.194;21.006;2023-05-16T17:06:47;1.70;;;1.60;;
22223;SDS011;11281;52.194;21.006;2023-05-16T17:10:48;3.40;;;1.85;;
22223;SDS011;11281;52.194;21.006;2023-05-16T17:14:49;2.15;;;1.77;;
22223;SDS011;11281;52.194;21.006;2023-05-16T17:18:51;4.00;;;1.75;;
22223;SDS011;11281;52.194;21.006;2023-05-16T17:22:52;2.83;;;1.90;;
22223;SDS011;11281;52.194;21.006;2023-05-16T17:26:54;3.80;;;1.83;;
22223;SDS011;11281;52.194;21.006;2023-05-16T17:30:57;3.35;;;1.88;;
22223;SDS011;11281;52.194;21.006;2023-05-16T17:34:59;2.72;;;1.73;;
22223;SDS011;11281;52.194;21.006;2023-05-16T17:39:03;3.65;;;2.00;;
22223;SDS011;11281;52.194;21.006;2023-05-16T17:43:07;2.33;;;2.13;;
22223;SDS011;11281;52.194;21.006;2023-05-16T17:47:08;2.10;;;1.90;;
22223;SDS011;11281;52.194;21.006;2023-05-16T17:51:09;2.10;;;1.80;;
22223;SDS011;11281;52.194;21.006;2023-05-16T17:55:11;2.75;;;2.03;;
22223;SDS011;11281;52.194;21.006;2023-05-16T17:59:13;4.32;;;2.20;;
22223;SDS011;11281;52.194;21.006;2023-05-16T18:03:15;1.73;;;1.60;;
22223;SDS011;11281;52.194;21.006;2023-05-16T18:07:17;5.95;;;2.45;;
22223;SDS011;11281;52.194;21.006;2023-05-16T18:11:18;3.53;;;2.55;;
22223;SDS011;11281;52.194;21.006;2023-05-16T18:15:22;6.95;;;3.60;;
22223;SDS011;11281;52.194;21.006;2023-05-16T18:19:23;5.15;;;3.33;;
22223;SDS011;11281;52.194;21.006;2023-05-16T18:23:25;7.85;;;3.60;;
22223;SDS011;11281;52.194;21.006;2023-05-16T18:27:27;5.53;;;3.78;;
22223;SDS011;11281;52.194;21.006;2023-05-16T18:31:28;7.18;;;3.80;;
22223;SDS011;11281;52.194;21.006;2023-05-16T18:35:31;5.07;;;3.35;;
22223;SDS011;11281;52.194;21.006;2023-05-16T18:39:32;5.32;;;3.75;;
22223;SDS011;11281;52.194;21.006;2023-05-16T18:43:33;4.80;;;3.38;;
22223;SDS011;11281;52.194;21.006;2023-05-16T18:47:36;5.32;;;3.60;;
22223;SDS011;11281;52.194;21.006;2023-05-16T18:51:38;6.13;;;3.97;;
22223;SDS011;11281;52.194;21.006;2023-05-16T18:55:39;8.73;;;5.00;;
22223;SDS011;11281;52.194;21.006;2023-05-16T18:59:40;11.00;;;6.00;;
22223;SDS011;11281;52.194;21.006;2023-05-16T19:03:41;10.75;;;6.10;;
22223;SDS011;11281;52.194;21.006;2023-05-16T19:07:42;12.20;;;5.90;;
22223;SDS011;11281;52.194;21.006;2023-05-16T19:11:44;10.32;;;6.75;;
22223;SDS011;11281;52.194;21.006;2023-05-16T19:15:46;15.13;;;6.55;;
22223;SDS011;11281;52.194;21.006;2023-05-16T19:19:48;9.40;;;6.30;;
22223;SDS011;11281;52.194;21.006;2023-05-16T19:23:50;10.98;;;6.30;;
22223;SDS011;11281;52.194;21.006;2023-05-16T19:27:52;10.63;;;6.03;;
22223;SDS011;11281;52.194;21.006;2023-05-16T19:31:54;10.77;;;5.50;;
22223;SDS011;11281;52.194;21.006;2023-05-16T19:35:56;8.35;;;5.78;;
22223;SDS011;11281;52.194;21.006;2023-05-16T19:39:57;13.02;;;7.25;;
22223;SDS011;11281;52.194;21.006;2023-05-16T19:43:59;20.27;;;10.45;;
22223;SDS011;11281;52.194;21.006;2023-05-16T19:48:01;19.48;;;11.05;;
22223;SDS011;11281;52.194;21.006;2023-05-16T19:52:03;27.20;;;13.15;;
22223;SDS011;11281;52.194;21.006;2023-05-16T19:56:08;39.85;;;16.58;;
22223;SDS011;11281;52.194;21.006;2023-05-16T20:00:09;35.90;;;16.80;;
22223;SDS011;11281;52.194;21.006;2023-05-16T20:04:11;30.50;;;14.25;;
22223;SDS011;11281;52.194;21.006;2023-05-16T20:08:13;20.73;;;10.07;;
22223;SDS011;11281;52.194;21.006;2023-05-16T20:12:14;33.50;;;14.85;;
22223;SDS011;11281;52.194;21.006;2023-05-16T20:16:16;31.13;;;14.05;;
22223;SDS011;11281;52.194;21.006;2023-05-16T20:20:20;24.13;;;12.80;;
22223;SDS011;11281;52.194;21.006;2023-05-16T20:24:21;23.85;;;13.50;;
22223;SDS011;11281;52.194;21.006;2023-05-16T20:28:22;26.77;;;13.07;;
22223;SDS011;11281;52.194;21.006;2023-05-16T20:32:24;27.35;;;13.80;;
22223;SDS011;11281;52.194;21.006;2023-05-16T20:36:25;23.08;;;14.05;;
22223;SDS011;11281;52.194;21.006;2023-05-16T20:40:27;25.52;;;13.02;;
22223;SDS011;11281;52.194;21.006;2023-05-16T20:44:28;21.85;;;12.88;;
22223;SDS011;11281;52.194;21.006;2023-05-16T20:48:31;21.90;;;11.27;;
22223;SDS011;11281;52.194;21.006;2023-05-16T20:52:32;17.00;;;10.60;;
22223;SDS011;11281;52.194;21.006;2023-05-16T20:56:33;20.15;;;12.60;;
22223;SDS011;11281;52.194;21.006;2023-05-16T21:00:34;21.55;;;11.77;;
22223;SDS011;11281;52.194;21.006;2023-05-16T21:04:36;21.00;;;12.23;;
22223;SDS011;11281;52.194;21.006;2023-05-16T21:08:37;21.40;;;11.32;;
22223;SDS011;11281;52.194;21.006;2023-05-16T21:12:38;15.88;;;10.20;;
22223;SDS011;11281;52.194;21.006;2023-05-16T21:16:40;17.63;;;9.70;;
22223;SDS011;11281;52.194;21.006;2023-05-16T21:20:42;18.30;;;10.70;;
22223;SDS011;11281;52.194;21.006;2023-05-16T21:24:43;19.85;;;10.15;;
22223;SDS011;11281;52.194;21.006;2023-05-16T21:28:44;14.15;;;8.65;;
22223;SDS011;11281;52.194;21.006;2023-05-16T21:32:45;11.52;;;8.98;;
22223;SDS011;11281;52.194;21.006;2023-05-16T21:36:47;12.52;;;8.75;;
22223;SDS011;11281;52.194;21.006;2023-05-16T21:40:49;11.20;;;8.25;;
22223;SDS011;11281;52.194;21.006;2023-05-16T21:44:50;19.33;;;9.25;;
22223;SDS011;11281;52.194;21.006;2023-05-16T21:48:51;15.27;;;9.48;;
22223;SDS011;11281;52.194;21.006;2023-05-16T21:52:53;15.15;;;9.68;;
22223;SDS011;11281;52.194;21.006;2023-05-16T21:56:54;19.42;;;10.50;;
22223;SDS011;11281;52.194;21.006;2023-05-16T22:01:08;16.50;;;10.38;;
22223;SDS011;11281;52.194;21.006;2023-05-16T22:05:09;17.38;;;10.45;;
22223;SDS011;11281;52.194;21.006;2023-05-16T22:09:10;14.45;;;9.70;;
22223;SDS011;11281;52.194;21.006;2023-05-16T22:13:12;15.55;;;9.60;;
22223;SDS011;11281;52.194;21.006;2023-05-16T22:17:13;14.40;;;9.50;;
22223;SDS011;11281;52.194;21.006;2023-05-16T22:21:15;15.80;;;9.60;;
22223;SDS011;11281;52.194;21.006;2023-05-16T22:25:16;13.93;;;9.02;;
22223;SDS011;11281;52.194;21.006;2023-05-16T22:29:17;19.63;;;9.18;;
22223;SDS011;11281;52.194;21.006;2023-05-16T22:33:19;18.58;;;10.63;;
22223;SDS011;11281;52.194;21.006;2023-05-16T22:37:22;16.45;;;10.23;;
22223;SDS011;11281;52.194;21.006;2023-05-16T22:41:24;15.52;;;9.05;;
22223;SDS011;11281;52.194;21.006;2023-05-16T22:45:26;14.27;;;8.95;;
22223;SDS011;11281;52.194;21.006;2023-05-16T22:49:28;18.25;;;10.35;;
22223;SDS011;11281;52.194;21.006;2023-05-16T22:53:29;19.38;;;10.20;;
22223;SDS011;11281;52.194;21.006;2023-05-16T22:57:30;16.25;;;9.88;;
22223;SDS011;11281;52.194;21.006;2023-05-16T23:01:32;17.45;;;10.75;;
22223;SDS011;11281;52.194;21.006;2023-05-16T23:05:33;15.98;;;9.70;;
22223;SDS011;11281;52.194;21.006;2023-05-16T23:09:34;17.92;;;9.70;;
22223;SDS011;11281;52.194;21.006;2023-05-16T23:13:35;14.90;;;9.48;;
22223;SDS011;11281;52.194;21.006;2023-05-16T23:17:36;18.20;;;9.55;;
22223;SDS011;11281;52.194;21.006;2023-05-16T23:21:38;17.25;;;9.93;;
22223;SDS011;11281;52.194;21.006;2023-05-16T23:25:39;15.95;;;9.25;;
22223;SDS011;11281;52.194;21.006;2023-05-16T23:29:40;15.60;;;8.73;;
22223;SDS011;11281;52.194;21.006;2023-05-16T23:33:41;15.45;;;9.93;;
22223;SDS011;11281;52.194;21.006;2023-05-16T23:37:43;14.40;;;8.77;;
22223;SDS011;11281;52.194;21.006;2023-05-16T23:41:45;15.07;;;8.70;;
22223;SDS011;11281;52.194;21.006;2023-05-16T23:45:47;13.88;;;8.70;;
22223;SDS011;11281;52.194;21.006;2023-05-16T23:49:49;13.65;;;8.75;;
22223;SDS011;11281;52.194;21.006;2023-05-16T23:53:50;13.52;;;8.43;;
22223;SDS011;11281;52.194;21.006;2023-05-16T23:57:51;11.43;;;8.07;;
